首页
METAR-TAF:

METAR-TAF

机场 :

空军基地 Cameri

諾瓦拉, 意大利

纬度: 45-31N, 经度: 008-40E, 海拔: 178米

当前天气观测

该预报发布于10小时和52分钟前的17:55 UTC
风速4节,风向西北
温度 8°C
湿度 39%
气压 1002 hPa
能见度10公里或以上
1500米以下无云,无积雨云

METAR: LIMN 131755Z 32004KT CAVOK 08/M05 Q1002 RMK FEW FEW200 VIS MIN 9999 BLU

时间: 05:47 (04:47 UTC)

预报

该预报发布于11小时和47分钟前的17:00 UTC
预报有效从13日的 18点(UTC)到 14日的 03点(UTC)
风速5节,风向北转东北
能见度10公里或以上
1500米以下无云,无积雨云

TAF: LIMN 131700Z 1318/1403 02005KT CAVOK

超过4000个机场的气象观测和天气预报(METAR&TAF报告)。

可查询的气象台以黄色和红色小点在地图上表示。

将鼠标移到小点上方,可查看气象台名称。

然后点击查看天气观测和预报。

如需切换地图:点击带黑十字的绿色按钮放大地图;点击带横线的绿色按钮缩小地图;或者点击绿色箭头查看邻近地区的地图。


METAR-TAF: